createdAt,value
2022-08-31T00:00:14.352Z,94704.31
2022-08-31T00:02:59.802Z,94690.47
2022-08-31T00:05:26.761Z,94701.94
2022-08-31T00:07:54.449Z,94688.22
2022-08-31T00:10:32.441Z,94703.63
2022-08-31T00:13:04.556Z,94714.47
2022-08-31T00:15:35.379Z,94701.56
2022-08-31T00:18:02.380Z,94686.63
2022-08-31T00:20:33.572Z,94690.72
2022-08-31T00:23:07.433Z,94706.28
2022-08-31T00:25:36.763Z,94692.69
2022-08-31T00:28:05.171Z,94697.75
2022-08-31T00:30:32.962Z,94696.75
2022-08-31T00:33:00.183Z,94702.50
2022-08-31T00:35:38.113Z,94707.41
2022-08-31T00:38:06.045Z,94696.16
2022-08-31T00:40:44.302Z,94701.28
2022-08-31T00:43:21.329Z,94705.44
2022-08-31T00:45:48.274Z,94708.69
2022-08-31T00:48:15.037Z,94719.22
2022-08-31T00:50:41.928Z,94713.81
2022-08-31T00:53:08.690Z,94704.56
2022-08-31T00:55:37.225Z,94700.63
2022-08-31T00:58:10.204Z,94699.63
2022-08-31T01:00:37.522Z,94695.94
2022-08-31T01:03:08.111Z,94700.22
2022-08-31T01:05:36.136Z,94702.03
2022-08-31T01:08:04.161Z,94696.53
2022-08-31T01:10:36.302Z,94696.44
2022-08-31T01:13:05.247Z,94692.72
2022-08-31T01:15:33.425Z,94685.81
2022-08-31T01:18:03.731Z,94697.84
2022-08-31T01:20:49.192Z,94691.25
2022-08-31T01:23:19.170Z,94681.59
2022-08-31T01:25:48.780Z,94693.84
2022-08-31T01:28:16.149Z,94698.91
2022-08-31T01:30:44.075Z,94698.59
2022-08-31T01:33:13.314Z,94697.34
2022-08-31T01:35:45.001Z,94704.25
2022-08-31T01:38:13.342Z,94695.97
2022-08-31T01:40:50.929Z,94706.22
2022-08-31T01:43:17.960Z,94706.00
2022-08-31T01:45:44.917Z,94706.59
2022-08-31T01:48:11.935Z,94708.00
2022-08-31T01:50:39.114Z,94705.34
2022-08-31T01:53:06.005Z,94722.47
2022-08-31T01:55:32.797Z,94706.72
2022-08-31T01:58:00.814Z,94707.50
2022-08-31T02:00:29.008Z,94716.69
2022-08-31T02:03:00.197Z,94717.88
2022-08-31T02:05:28.356Z,94708.53
2022-08-31T02:07:57.114Z,94714.22
2022-08-31T02:10:24.989Z,94716.19
2022-08-31T02:12:52.004Z,94709.56
2022-08-31T02:15:18.953Z,94708.97
2022-08-31T02:17:45.846Z,94714.06
2022-08-31T02:20:15.793Z,94709.34
2022-08-31T02:22:43.629Z,94708.66
2022-08-31T02:25:11.318Z,94712.69
2022-08-31T02:27:38.666Z,94717.19
2022-08-31T02:30:11.954Z,94710.38
2022-08-31T02:32:38.756Z,94714.81
2022-08-31T02:35:06.777Z,94713.69
2022-08-31T02:37:33.565Z,94717.19
2022-08-31T02:40:02.963Z,94721.47
2022-08-31T02:42:52.164Z,94725.53
2022-08-31T02:45:18.581Z,94721.19
2022-08-31T02:47:45.516Z,94715.22
2022-08-31T02:50:13.031Z,94717.50
2022-08-31T02:52:39.964Z,94721.19
2022-08-31T02:55:07.464Z,94717.19
2022-08-31T02:57:34.249Z,94721.69
2022-08-31T03:00:01.025Z,94723.69
2022-08-31T03:02:32.031Z,94727.38
2022-08-31T03:05:02.493Z,94728.56
2022-08-31T03:07:29.301Z,94724.69
2022-08-31T03:09:56.141Z,94726.47
2022-08-31T03:12:22.911Z,94735.69
2022-08-31T03:14:49.697Z,94716.63
2022-08-31T03:17:16.425Z,94730.28
2022-08-31T03:19:43.261Z,94727.69
2022-08-31T03:22:10.614Z,94725.66
2022-08-31T03:24:37.681Z,94716.72
2022-08-31T03:27:04.917Z,94728.34
2022-08-31T03:29:31.946Z,94731.97
2022-08-31T03:31:58.710Z,94714.66
2022-08-31T03:34:25.505Z,94705.31
2022-08-31T03:36:52.247Z,94715.94
2022-08-31T03:39:19.099Z,94710.03
2022-08-31T03:41:45.976Z,94709.50
2022-08-31T03:44:13.034Z,94706.16
2022-08-31T03:46:41.385Z,94706.91
2022-08-31T03:49:08.166Z,94716.16
2022-08-31T03:51:34.930Z,94706.38
2022-08-31T03:54:01.717Z,94710.44
2022-08-31T03:56:28.485Z,94717.56
2022-08-31T03:58:55.258Z,94718.38
2022-08-31T04:01:22.080Z,94731.94
2022-08-31T04:03:48.884Z,94719.06
2022-08-31T04:06:15.750Z,94729.69
2022-08-31T04:08:42.710Z,94732.34
2022-08-31T04:11:17.050Z,94721.69
2022-08-31T04:13:46.732Z,94749.72
2022-08-31T04:16:17.828Z,94746.66
2022-08-31T04:18:47.170Z,94744.44
2022-08-31T04:21:18.201Z,94734.06
2022-08-31T04:23:44.949Z,94718.53
2022-08-31T04:26:27.268Z,94726.56
2022-08-31T04:28:54.830Z,94725.97
2022-08-31T04:31:24.061Z,94748.47
2022-08-31T04:33:51.475Z,94748.88
2022-08-31T04:36:24.008Z,94755.00
2022-08-31T04:38:53.893Z,94744.34
2022-08-31T04:41:23.437Z,94737.63
2022-08-31T04:43:53.443Z,94750.94
2022-08-31T04:46:21.727Z,94751.41
2022-08-31T04:48:49.576Z,94755.09
2022-08-31T04:51:24.165Z,94752.84
2022-08-31T04:53:52.975Z,94757.53
2022-08-31T04:56:28.045Z,94764.72
2022-08-31T04:59:08.700Z,94762.09
2022-08-31T05:01:43.420Z,94762.72
2022-08-31T05:04:13.783Z,94761.31
2022-08-31T05:06:43.315Z,94730.66
2022-08-31T05:09:16.113Z,94767.03
2022-08-31T05:11:43.608Z,94768.69
2022-08-31T05:14:10.946Z,94771.13
2022-08-31T05:16:40.083Z,94773.97
2022-08-31T05:19:07.390Z,94773.19
2022-08-31T05:21:38.049Z,94734.94
2022-08-31T05:24:11.804Z,94752.31
2022-08-31T05:26:44.531Z,94776.00
2022-08-31T05:29:16.056Z,94787.06
2022-08-31T05:31:46.239Z,94771.94
2022-08-31T05:34:17.766Z,94791.56
2022-08-31T05:36:50.807Z,94805.47
2022-08-31T05:39:17.488Z,94804.44
2022-08-31T05:41:46.936Z,94808.94
2022-08-31T05:44:15.515Z,94816.91
2022-08-31T05:46:43.292Z,94817.56
2022-08-31T05:49:11.850Z,94811.19
2022-08-31T05:51:39.311Z,94815.28
2022-08-31T05:54:07.674Z,94792.81
2022-08-31T05:56:35.783Z,94809.56
2022-08-31T05:59:03.508Z,94815.69
2022-08-31T06:01:34.058Z,94815.72
2022-08-31T06:04:02.741Z,94808.53
2022-08-31T06:06:30.342Z,94813.06
2022-08-31T06:08:58.546Z,94808.34
2022-08-31T06:11:29.080Z,94820.59
2022-08-31T06:13:59.133Z,94814.06
2022-08-31T06:16:27.159Z,94814.06
2022-08-31T06:18:55.762Z,94811.41
2022-08-31T06:21:33.566Z,94821.81
2022-08-31T06:24:03.353Z,94819.38
2022-08-31T06:26:33.649Z,94796.50
2022-08-31T06:29:05.637Z,94797.09
2022-08-31T06:31:38.117Z,94818.75
2022-08-31T06:34:07.298Z,94810.16
2022-08-31T06:36:35.274Z,94811.19
2022-08-31T06:39:03.134Z,94805.91
2022-08-31T06:41:36.759Z,94816.72
2022-08-31T06:44:08.370Z,94827.97
2022-08-31T06:46:37.820Z,94825.69
2022-08-31T06:49:09.006Z,94832.84
2022-08-31T06:51:38.275Z,94841.44
2022-08-31T06:54:28.580Z,94833.66
2022-08-31T06:57:02.915Z,94845.75
2022-08-31T06:59:30.203Z,94852.91
2022-08-31T07:02:01.742Z,94859.47
2022-08-31T07:04:33.976Z,94859.03
2022-08-31T07:07:01.021Z,94832.47
2022-08-31T07:09:29.058Z,94862.31
2022-08-31T07:11:55.995Z,94836.34
2022-08-31T07:14:26.002Z,94843.94
2022-08-31T07:16:56.646Z,94857.41
2022-08-31T07:19:27.437Z,94831.88
2022-08-31T07:21:58.162Z,94856.59
2022-08-31T07:24:30.567Z,94852.09
2022-08-31T07:27:05.720Z,94848.84
2022-08-31T07:29:40.436Z,94839.00
2022-08-31T07:32:14.334Z,94840.22
2022-08-31T07:34:44.153Z,94836.16
2022-08-31T07:37:29.969Z,94850.03
2022-08-31T07:40:15.263Z,94841.47
2022-08-31T07:42:45.021Z,94843.06
2022-08-31T07:45:23.030Z,94823.06
2022-08-31T07:47:52.589Z,94852.69
2022-08-31T07:50:21.583Z,94857.00
2022-08-31T07:52:54.486Z,94853.72
2022-08-31T07:55:23.651Z,94859.66
2022-08-31T07:57:53.488Z,94848.00
2022-08-31T08:00:26.581Z,94853.53
2022-08-31T08:02:54.145Z,94845.97
2022-08-31T08:05:29.289Z,94858.22
2022-08-31T08:08:09.342Z,94864.78
2022-08-31T08:10:44.023Z,94872.13
2022-08-31T08:13:13.764Z,94858.84
2022-08-31T08:15:40.725Z,94864.38
2022-08-31T08:18:10.914Z,94868.47
2022-08-31T08:20:39.283Z,94862.31
2022-08-31T08:23:14.377Z,94859.44
2022-08-31T08:25:46.392Z,94877.03
2022-08-31T08:31:06.345Z,94869.25
2022-08-31T08:33:35.473Z,94875.22
2022-08-31T08:36:07.908Z,94886.00
2022-08-31T08:38:39.559Z,94874.78
2022-08-31T08:41:24.079Z,94876.19
2022-08-31T08:43:59.041Z,94886.22
2022-08-31T08:46:40.496Z,94881.09
2022-08-31T08:49:49.843Z,94884.59
2022-08-31T08:52:28.789Z,94883.56
2022-08-31T08:55:01.521Z,94875.34
2022-08-31T08:57:32.114Z,94883.34
2022-08-31T09:00:10.208Z,94894.19
2022-08-31T09:02:45.630Z,94859.41
2022-08-31T09:05:36.572Z,94897.69
2022-08-31T09:09:08.608Z,94892.16
2022-08-31T09:12:39.700Z,94897.06
2022-08-31T09:15:57.460Z,94885.19
2022-08-31T09:18:33.065Z,94896.44
2022-08-31T09:21:22.375Z,94889.28
2022-08-31T09:24:01.676Z,94891.31
2022-08-31T09:26:35.730Z,94882.72
2022-08-31T09:29:14.031Z,94887.41
2022-08-31T09:31:43.729Z,94898.22
2022-08-31T09:34:31.373Z,94892.50
2022-08-31T09:37:23.994Z,94899.63
2022-08-31T09:39:53.797Z,94897.00
2022-08-31T09:42:34.083Z,94895.34
2022-08-31T09:45:16.026Z,94900.81
2022-08-31T09:47:52.140Z,94887.38
2022-08-31T09:50:32.991Z,94893.28
2022-08-31T09:53:45.695Z,94890.84
2022-08-31T09:56:22.425Z,94899.00
2022-08-31T09:58:49.168Z,94902.22
2022-08-31T10:01:42.087Z,94893.03
2022-08-31T10:04:12.329Z,94901.81
2022-08-31T10:06:55.926Z,94895.69
2022-08-31T10:09:39.378Z,94895.44
2022-08-31T10:12:38.764Z,94891.94
2022-08-31T10:15:36.090Z,94902.94
2022-08-31T10:18:14.007Z,94899.06
2022-08-31T10:20:51.822Z,94883.28
2022-08-31T10:23:54.499Z,94896.94
2022-08-31T10:26:46.652Z,94895.94
2022-08-31T10:30:06.957Z,94896.66
2022-08-31T10:32:44.097Z,94876.59
2022-08-31T10:35:28.759Z,94887.91
2022-08-31T10:38:14.781Z,94869.47
2022-08-31T10:40:52.129Z,94876.78
2022-08-31T10:43:23.992Z,94886.63
2022-08-31T10:45:53.335Z,94888.66
2022-08-31T10:48:24.778Z,94888.72
2022-08-31T10:51:19.513Z,94891.53
2022-08-31T10:54:06.846Z,94832.53
2022-08-31T10:56:59.270Z,94884.81
2022-08-31T11:00:03.678Z,94890.59
2022-08-31T11:03:26.216Z,94873.69
2022-08-31T11:06:11.084Z,94876.53
2022-08-31T11:08:59.179Z,94885.72
2022-08-31T11:11:43.774Z,94883.41
2022-08-31T11:14:45.457Z,94887.50
2022-08-31T11:17:35.026Z,94884.66
2022-08-31T11:20:43.053Z,94877.75
2022-08-31T11:23:28.154Z,94879.69
2022-08-31T11:26:32.933Z,94887.31
2022-08-31T11:29:10.145Z,94862.53
2022-08-31T11:31:39.030Z,94867.56
2022-08-31T11:34:17.349Z,94875.16
2022-08-31T11:36:52.153Z,94870.41
2022-08-31T11:39:33.871Z,94872.56
2022-08-31T11:42:34.378Z,94880.28
2022-08-31T11:45:37.687Z,94878.69
2022-08-31T11:48:07.058Z,94869.34
2022-08-31T11:50:36.879Z,94876.19
2022-08-31T11:53:44.523Z,94881.34
2022-08-31T11:56:14.606Z,94870.34
2022-08-31T11:58:42.480Z,94855.78
2022-08-31T12:01:12.044Z,94873.63
2022-08-31T12:04:03.666Z,94883.34
2022-08-31T12:06:35.577Z,94877.88
2022-08-31T12:09:02.348Z,94871.38
2022-08-31T12:11:57.292Z,94865.25
2022-08-31T12:14:50.218Z,94864.34
2022-08-31T12:17:22.790Z,94863.31
2022-08-31T12:20:01.386Z,94857.59
2022-08-31T12:23:30.673Z,94850.13
2022-08-31T12:26:16.553Z,94856.06
2022-08-31T12:29:24.270Z,94862.94
2022-08-31T12:32:41.923Z,94871.09
2022-08-31T12:35:21.723Z,94851.31
2022-08-31T12:38:08.729Z,94858.88
2022-08-31T12:40:57.498Z,94871.03
2022-08-31T12:43:47.038Z,94858.56
2022-08-31T12:46:59.268Z,94849.63
2022-08-31T12:50:05.163Z,94846.34
2022-08-31T12:52:55.309Z,94859.81
2022-08-31T12:55:55.021Z,94842.41
2022-08-31T12:59:05.652Z,94863.66
2022-08-31T13:01:32.762Z,94840.84
2022-08-31T13:04:02.350Z,94828.47
2022-08-31T13:06:37.164Z,94847.06
2022-08-31T13:09:06.530Z,94820.78
2022-08-31T13:11:41.795Z,94835.88
2022-08-31T13:14:24.707Z,94831.53
2022-08-31T13:16:58.595Z,94833.47
2022-08-31T13:19:30.585Z,94832.81
2022-08-31T13:22:07.938Z,94830.69
2022-08-31T13:24:47.949Z,94828.47
2022-08-31T13:27:20.933Z,94822.34
2022-08-31T13:29:50.702Z,94821.19
2022-08-31T13:32:31.737Z,94827.47
2022-08-31T13:35:02.990Z,94828.84
2022-08-31T13:37:37.394Z,94809.47
2022-08-31T13:40:10.359Z,94827.75
2022-08-31T13:42:42.710Z,94802.84
2022-08-31T13:45:36.273Z,94813.25
2022-08-31T13:48:20.117Z,94827.72
2022-08-31T13:50:56.353Z,94821.06
2022-08-31T13:54:04.820Z,94822.50
2022-08-31T13:56:50.296Z,94827.00
2022-08-31T13:59:26.814Z,94831.16
2022-08-31T14:02:19.615Z,94837.28
2022-08-31T14:05:01.484Z,94822.66
2022-08-31T14:07:54.999Z,94806.16
2022-08-31T14:10:37.875Z,94813.38
2022-08-31T14:13:19.259Z,94815.38
2022-08-31T14:15:56.652Z,94826.78
2022-08-31T14:18:45.344Z,94807.72
2022-08-31T14:21:21.904Z,94813.47
2022-08-31T14:24:03.604Z,94812.69
2022-08-31T14:26:38.004Z,94815.69
2022-08-31T14:29:10.931Z,94821.25
2022-08-31T14:31:56.373Z,94808.72
2022-08-31T14:34:34.000Z,94801.69
2022-08-31T14:37:11.504Z,94798.19
2022-08-31T14:39:47.669Z,94817.13
2022-08-31T14:42:24.771Z,94799.88
2022-08-31T14:45:05.733Z,94804.78
2022-08-31T14:47:42.735Z,94807.19
2022-08-31T14:50:22.210Z,94786.00
2022-08-31T14:52:53.816Z,94815.13
2022-08-31T14:55:24.495Z,94804.25
2022-08-31T14:58:01.604Z,94789.56
2022-08-31T15:00:31.908Z,94800.66
2022-08-31T15:03:03.081Z,94791.03
2022-08-31T15:05:30.026Z,94801.34
2022-08-31T15:07:57.282Z,94788.38
2022-08-31T15:10:26.267Z,94797.50
2022-08-31T15:12:53.904Z,94811.53
2022-08-31T15:15:21.662Z,94779.88
2022-08-31T15:17:51.513Z,94816.50
2022-08-31T15:20:21.151Z,94781.72
2022-08-31T15:22:48.784Z,94808.25
2022-08-31T15:25:17.160Z,94806.94
2022-08-31T15:27:44.837Z,94792.13
2022-08-31T15:30:16.029Z,94782.97
2022-08-31T15:32:45.206Z,94781.63
2022-08-31T15:35:19.059Z,94796.44
2022-08-31T15:37:56.677Z,94800.53
2022-08-31T15:40:25.315Z,94749.69
2022-08-31T15:42:56.165Z,94785.72
2022-08-31T15:45:25.447Z,94784.91
2022-08-31T15:48:11.103Z,94799.78
2022-08-31T15:50:38.269Z,94792.16
2022-08-31T15:53:10.034Z,94791.31
2022-08-31T15:55:41.060Z,94786.72
2022-08-31T15:58:09.890Z,94778.34
2022-08-31T16:00:37.795Z,94763.84
2022-08-31T16:03:06.290Z,94789.47
2022-08-31T16:05:35.992Z,94791.63
2022-08-31T16:08:03.793Z,94757.44
2022-08-31T16:10:31.271Z,94728.22
2022-08-31T16:12:58.585Z,94785.84
2022-08-31T16:15:28.124Z,94759.88
2022-08-31T16:17:57.762Z,94754.91
2022-08-31T16:20:27.544Z,94781.25
2022-08-31T16:22:54.833Z,94788.91
2022-08-31T16:25:21.708Z,94769.38
2022-08-31T16:27:48.592Z,94786.09
2022-08-31T16:30:16.059Z,94805.75
2022-08-31T16:32:42.927Z,94770.19
2022-08-31T16:35:10.637Z,94781.44
2022-08-31T16:37:37.853Z,94774.00
2022-08-31T16:40:05.995Z,94809.88
2022-08-31T16:42:32.985Z,94784.59
2022-08-31T16:45:02.451Z,94792.84
2022-08-31T16:47:29.886Z,94808.13
2022-08-31T16:50:00.900Z,94818.31
2022-08-31T16:52:27.748Z,94795.19
2022-08-31T16:54:59.045Z,94797.81
2022-08-31T16:57:28.992Z,94797.22
2022-08-31T16:59:57.680Z,94789.75
2022-08-31T17:02:28.228Z,94816.94
2022-08-31T17:05:00.660Z,94811.47
2022-08-31T17:07:29.319Z,94795.28
2022-08-31T17:10:07.154Z,94780.56
2022-08-31T17:12:34.774Z,94792.44
2022-08-31T17:15:04.286Z,94794.53
2022-08-31T17:17:33.026Z,94793.63
2022-08-31T17:20:00.830Z,94791.25
2022-08-31T17:22:32.973Z,94777.25
2022-08-31T17:25:04.842Z,94812.63
2022-08-31T17:27:34.410Z,94783.94
2022-08-31T17:30:05.537Z,94776.56
2022-08-31T17:32:32.706Z,94803.03
2022-08-31T17:34:59.903Z,94785.09
2022-08-31T17:37:36.392Z,94768.97
2022-08-31T17:40:08.271Z,94802.25
2022-08-31T17:42:35.929Z,94784.97
2022-08-31T17:45:05.068Z,94798.13
2022-08-31T17:47:33.286Z,94788.84
2022-08-31T17:50:00.414Z,94797.81
2022-08-31T17:52:27.519Z,94784.59
2022-08-31T17:54:55.425Z,94814.94
2022-08-31T17:57:25.341Z,94813.53
2022-08-31T17:59:54.938Z,94777.53
2022-08-31T18:02:32.746Z,94811.41
2022-08-31T18:05:01.105Z,94821.78
2022-08-31T18:07:28.783Z,94804.47
2022-08-31T18:09:56.097Z,94826.34
2022-08-31T18:12:25.708Z,94778.19
2022-08-31T18:14:54.017Z,94827.88
2022-08-31T18:17:24.272Z,94830.84
2022-08-31T18:19:51.152Z,94814.59
2022-08-31T18:22:19.923Z,94829.81
2022-08-31T18:24:46.958Z,94840.50
2022-08-31T18:27:15.562Z,94838.63
2022-08-31T18:29:44.821Z,94845.63
2022-08-31T18:32:11.943Z,94823.81
2022-08-31T18:34:47.447Z,94833.47
2022-08-31T18:37:22.233Z,94847.19
2022-08-31T18:40:08.851Z,94836.47
2022-08-31T18:42:56.835Z,94834.06
2022-08-31T18:45:25.618Z,94834.34
2022-08-31T18:50:47.546Z,94836.56
2022-08-31T18:53:29.015Z,94853.75
2022-08-31T18:56:09.502Z,94848.88
2022-08-31T18:58:38.002Z,94847.47
2022-08-31T19:01:10.468Z,94850.53
2022-08-31T19:03:41.111Z,94844.59
2022-08-31T19:06:09.273Z,94850.38
2022-08-31T19:08:36.122Z,94838.09
2022-08-31T19:11:07.663Z,94857.38
2022-08-31T19:13:34.628Z,94851.00
2022-08-31T19:16:10.754Z,94860.25
2022-08-31T19:18:44.175Z,94852.69
2022-08-31T19:21:27.385Z,94838.19
2022-08-31T19:23:55.802Z,94843.50
2022-08-31T19:26:37.869Z,94862.09
2022-08-31T19:29:09.544Z,94852.09
2022-08-31T19:31:40.922Z,94868.03
2022-08-31T19:34:08.923Z,94868.84
2022-08-31T19:36:40.452Z,94868.44
2022-08-31T19:39:13.337Z,94849.63
2022-08-31T19:41:49.376Z,94869.28
2022-08-31T19:44:17.583Z,94875.41
2022-08-31T19:46:52.451Z,94880.72
2022-08-31T19:49:19.699Z,94881.50
2022-08-31T19:51:51.863Z,94881.66
2022-08-31T19:54:21.131Z,94878.16
2022-08-31T19:56:47.988Z,94855.25
2022-08-31T19:59:20.106Z,94873.69
2022-08-31T20:01:52.222Z,94874.88
2022-08-31T20:04:22.097Z,94861.53
2022-08-31T20:06:52.204Z,94859.44
2022-08-31T20:09:22.456Z,94867.84
2022-08-31T20:11:50.817Z,94874.81
2022-08-31T20:14:19.914Z,94868.69
2022-08-31T20:16:47.765Z,94880.50
2022-08-31T20:19:24.624Z,94868.88
2022-08-31T20:21:55.917Z,94861.66
2022-08-31T20:24:25.571Z,94855.03
2022-08-31T20:26:57.351Z,94835.81
2022-08-31T20:29:25.134Z,94853.06
2022-08-31T20:31:55.321Z,94861.09
2022-08-31T20:34:28.114Z,94822.41
2022-08-31T20:37:00.920Z,94847.59
2022-08-31T20:39:30.794Z,94870.06
2022-08-31T20:41:59.187Z,94861.34
2022-08-31T20:44:31.172Z,94864.25
2022-08-31T20:47:21.092Z,94859.31
2022-08-31T20:50:00.401Z,94864.59
2022-08-31T20:52:31.617Z,94865.25
2022-08-31T20:55:01.669Z,94855.00
2022-08-31T20:57:30.252Z,94862.59
2022-08-31T20:59:57.197Z,94839.72
2022-08-31T21:02:24.465Z,94846.66
2022-08-31T21:04:51.438Z,94867.88
2022-08-31T21:07:23.316Z,94854.34
2022-08-31T21:09:50.523Z,94861.66
2022-08-31T21:12:18.583Z,94867.41
2022-08-31T21:14:46.663Z,94856.69
2022-08-31T21:17:14.523Z,94863.06
2022-08-31T21:19:42.210Z,94866.16
2022-08-31T21:22:13.952Z,94849.00
2022-08-31T21:24:42.061Z,94837.69
2022-08-31T21:27:14.392Z,94858.38
2022-08-31T21:29:41.559Z,94838.94
2022-08-31T21:32:10.705Z,94846.16
2022-08-31T21:34:38.334Z,94836.59
2022-08-31T21:37:08.412Z,94842.50
2022-08-31T21:39:35.258Z,94846.22
2022-08-31T21:42:02.606Z,94824.16
2022-08-31T21:44:29.766Z,94826.16
2022-08-31T21:46:56.681Z,94823.50
2022-08-31T21:49:23.665Z,94837.56
2022-08-31T21:51:57.852Z,94845.97
2022-08-31T21:54:28.312Z,94847.47
2022-08-31T21:57:00.782Z,94848.22
2022-08-31T21:59:35.015Z,94847.59
2022-08-31T22:02:11.247Z,94856.25
2022-08-31T22:04:42.085Z,94854.44
2022-08-31T22:07:09.637Z,94852.56
2022-08-31T22:09:37.393Z,94861.19
2022-08-31T22:12:06.618Z,94851.84
2022-08-31T22:14:38.365Z,94841.84
2022-08-31T22:17:07.060Z,94864.16
2022-08-31T22:19:37.781Z,94862.47
2022-08-31T22:22:11.852Z,94862.22
2022-08-31T22:24:40.280Z,94867.63
2022-08-31T22:27:10.838Z,94858.56
2022-08-31T22:29:40.059Z,94857.19
2022-08-31T22:32:12.821Z,94853.19
2022-08-31T22:34:46.213Z,94843.78
2022-08-31T22:37:14.337Z,94847.50
2022-08-31T22:39:47.039Z,94842.13
2022-08-31T22:42:15.245Z,94836.38
2022-08-31T22:44:44.086Z,94835.22
2022-08-31T22:47:10.890Z,94826.38
2022-08-31T22:49:38.050Z,94843.06
2022-08-31T22:52:05.086Z,94826.19
2022-08-31T22:54:32.303Z,94839.19
2022-08-31T22:56:59.178Z,94822.63
2022-08-31T22:59:27.776Z,94823.06
2022-08-31T23:02:00.592Z,94800.41
2022-08-31T23:04:28.739Z,94819.28
2022-08-31T23:06:57.590Z,94806.44
2022-08-31T23:09:31.052Z,94813.50
2022-08-31T23:12:01.294Z,94806.00
2022-08-31T23:14:29.611Z,94801.66
2022-08-31T23:17:00.915Z,94812.81
2022-08-31T23:19:42.387Z,94787.41
2022-08-31T23:22:15.148Z,94821.47
2022-08-31T23:24:47.090Z,94794.69
2022-08-31T23:27:17.802Z,94821.47
2022-08-31T23:29:49.855Z,94825.75
2022-08-31T23:32:20.075Z,94818.63
2022-08-31T23:34:50.698Z,94811.72
2022-08-31T23:37:23.164Z,94811.16
2022-08-31T23:39:54.566Z,94807.19
2022-08-31T23:42:23.788Z,94794.31
2022-08-31T23:44:51.154Z,94783.31
2022-08-31T23:47:22.925Z,94804.19
2022-08-31T23:49:51.480Z,94802.34
2022-08-31T23:52:22.271Z,94803.63
2022-08-31T23:54:54.059Z,94802.91
2022-08-31T23:57:32.501Z,94799.25
